Time;durP1;ratioP1;P1;durP2;ratioP2;P2;SDS_P1;SDS_P2;PMS_P1;PMS_P2;Temp;Humidity;BMP_temperature;BMP_pressure;BME280_temperature;BME280_humidity;BME280_pressure;Samples;Min_cycle;Max_cycle;Signal;HPM_P1;HPM_P2
2024/03/31 00:00:05;;;;;;;11.80;2.95;;;9.80;99.90;;;;;;5042324;28;20025;-33
2024/03/31 00:02:31;;;;;;;8.23;2.83;;;9.90;99.90;;;;;;5043541;28;20596;-35
2024/03/31 00:04:57;;;;;;;12.10;2.88;;;10.00;99.90;;;;;;5042912;28;20108;-34
2024/03/31 00:07:22;;;;;;;8.52;2.65;;;9.80;99.90;;;;;;5043036;28;20027;-34
2024/03/31 00:09:48;;;;;;;9.52;2.30;;;9.90;99.90;;;;;;5046814;28;20032;-42
2024/03/31 00:12:18;;;;;;;13.60;2.72;;;9.20;99.90;;;;;;5039934;28;20032;-42
2024/03/31 00:14:44;;;;;;;9.23;2.92;;;8.60;99.90;;;;;;5040495;28;20032;-41
2024/03/31 00:17:10;;;;;;;16.80;2.55;;;8.90;99.90;;;;;;5040501;28;20096;-40
2024/03/31 00:19:36;;;;;;;13.82;2.58;;;9.10;99.90;;;;;;5039414;28;20081;-41
2024/03/31 00:22:01;;;;;;;10.20;3.08;;;9.30;99.90;;;;;;5041856;28;20881;-37
2024/03/31 00:24:28;;;;;;;9.85;3.30;;;9.40;99.90;;;;;;5043152;28;20025;-40
2024/03/31 00:26:53;;;;;;;13.13;2.95;;;9.30;99.90;;;;;;5041888;28;20493;-40
2024/03/31 00:29:19;;;;;;;12.85;3.50;;;9.40;99.90;;;;;;5040611;28;20028;-40
2024/03/31 00:31:45;;;;;;;8.95;2.53;;;9.50;99.90;;;;;;5042642;28;20052;-42
2024/03/31 00:34:12;;;;;;;12.88;2.97;;;9.60;99.90;;;;;;5038476;28;20037;-42
2024/03/31 00:36:38;;;;;;;11.15;2.53;;;9.70;99.90;;;;;;5038868;28;20505;-41
2024/03/31 00:39:04;;;;;;;15.45;3.42;;;9.70;99.90;;;;;;5038493;28;20029;-38
2024/03/31 00:41:29;;;;;;;12.15;2.60;;;9.70;99.90;;;;;;5038229;28;20025;-41
2024/03/31 00:43:55;;;;;;;15.75;3.17;;;9.70;99.90;;;;;;5043098;28;20047;-42
2024/03/31 00:46:21;;;;;;;13.20;2.92;;;9.70;99.90;;;;;;5038120;28;20032;-41
2024/03/31 00:48:46;;;;;;;13.27;3.00;;;9.70;99.90;;;;;;5037849;28;20044;-37
2024/03/31 00:51:12;;;;;;;2.75;1.67;;;9.70;99.90;;;;;;5039718;28;20112;-40
2024/03/31 00:53:37;;;;;;;12.30;2.40;;;9.10;99.90;;;;;;5043100;28;20075;-41
2024/03/31 00:56:03;;;;;;;12.77;3.22;;;8.70;99.90;;;;;;5041817;28;20530;-38
2024/03/31 00:58:29;;;;;;;7.25;2.65;;;8.60;99.90;;;;;;5043811;28;20040;-39
2024/03/31 01:00:56;;;;;;;13.52;2.42;;;8.90;99.90;;;;;;5043153;28;20548;-41
2024/03/31 01:03:26;;;;;;;7.20;1.65;;;9.10;99.90;;;;;;5039797;28;20030;-41
2024/03/31 01:05:52;;;;;;;10.05;3.13;;;9.20;99.90;;;;;;5043026;28;20431;-39
2024/03/31 01:08:18;;;;;;;10.48;3.17;;;9.20;99.90;;;;;;5044061;28;20039;-35
2024/03/31 01:10:44;;;;;;;9.55;2.10;;;9.40;99.90;;;;;;5041643;28;20104;-33
2024/03/31 01:13:10;;;;;;;7.47;2.22;;;9.40;99.90;;;;;;5045848;28;20447;-38
2024/03/31 01:15:36;;;;;;;10.10;2.60;;;9.40;99.90;;;;;;5056414;28;20108;-35
2024/03/31 01:18:02;;;;;;;9.32;1.75;;;9.40;99.90;;;;;;5044075;28;20132;-39
2024/03/31 01:20:28;;;;;;;9.98;2.75;;;9.40;99.90;;;;;;5042250;28;20501;-37
2024/03/31 01:22:54;;;;;;;2.75;1.70;;;9.50;99.90;;;;;;5044923;28;20029;-33
2024/03/31 01:25:19;;;;;;;9.05;1.92;;;9.50;99.90;;;;;;5038455;28;20592;-37
2024/03/31 01:27:45;;;;;;;3.92;1.83;;;9.50;99.90;;;;;;5043614;28;20504;-33
2024/03/31 01:30:10;;;;;;;3.00;1.77;;;9.50;99.90;;;;;;5036681;28;20056;-39
2024/03/31 01:32:37;;;;;;;18.23;2.92;;;9.50;99.90;;;;;;5023241;28;20079;-34
2024/03/31 01:35:03;;;;;;;5.95;2.00;;;9.60;99.90;;;;;;5020186;28;20032;-37
2024/03/31 01:37:28;;;;;;;5.68;1.77;;;9.50;99.90;;;;;;5036396;28;20029;-40
2024/03/31 01:39:54;;;;;;;9.55;2.40;;;9.60;99.90;;;;;;5019018;28;20025;-36
2024/03/31 01:42:19;;;;;;;7.13;1.67;;;9.60;99.90;;;;;;5024754;28;20083;-35
2024/03/31 01:44:45;;;;;;;6.53;1.58;;;9.60;99.90;;;;;;5023888;28;20597;-35
2024/03/31 01:47:10;;;;;;;10.50;2.88;;;9.60;99.90;;;;;;5024007;28;20133;-33
2024/03/31 01:49:36;;;;;;;20.88;3.30;;;9.60;99.90;;;;;;5029188;28;20025;-34
2024/03/31 01:52:02;;;;;;;14.38;2.40;;;9.70;99.90;;;;;;5026556;28;20036;-36
2024/03/31 01:54:27;;;;;;;7.18;1.85;;;9.70;99.90;;;;;;5044921;28;20679;-32
2024/03/31 01:56:53;;;;;;;9.63;2.40;;;9.70;99.90;;;;;;5027361;28;20104;-34
2024/03/31 01:59:19;;;;;;;16.20;2.97;;;9.70;99.90;;;;;;5027270;28;20090;-34
2024/03/31 02:01:45;;;;;;;14.73;2.70;;;9.70;99.90;;;;;;5027313;28;20061;-33
2024/03/31 02:04:11;;;;;;;13.48;2.55;;;9.70;99.90;;;;;;5025527;28;20059;-34
2024/03/31 02:06:36;;;;;;;14.98;2.47;;;9.70;99.90;;;;;;5024421;28;20032;-32
2024/03/31 02:09:02;;;;;;;11.65;2.03;;;9.60;99.90;;;;;;5025144;28;20458;-38
2024/03/31 02:11:27;;;;;;;15.55;2.15;;;9.60;99.90;;;;;;5023692;28;20072;-35
2024/03/31 02:13:53;;;;;;;20.52;3.05;;;9.50;99.90;;;;;;5027915;28;20071;-34
2024/03/31 02:16:20;;;;;;;7.28;1.98;;;9.40;99.90;;;;;;5023517;28;20033;-32
2024/03/31 02:18:46;;;;;;;15.82;2.45;;;9.50;99.90;;;;;;5021079;28;20762;-41
2024/03/31 02:21:12;;;;;;;12.52;3.03;;;9.60;99.90;;;;;;5041887;28;20030;-40
2024/03/31 02:23:38;;;;;;;18.30;2.75;;;9.50;99.90;;;;;;5027675;28;20387;-40
2024/03/31 02:26:03;;;;;;;18.45;3.13;;;9.40;99.90;;;;;;5024260;28;20075;-38
2024/03/31 02:28:31;;;;;;;6.13;2.10;;;9.40;99.90;;;;;;5027031;28;20029;-40
2024/03/31 02:30:56;;;;;;;14.87;2.50;;;9.40;99.90;;;;;;5026257;28;20426;-41
2024/03/31 02:33:22;;;;;;;11.05;2.15;;;9.30;99.90;;;;;;5020328;28;20115;-41
2024/03/31 02:35:47;;;;;;;10.35;2.72;;;9.30;99.90;;;;;;5024245;28;20529;-40
2024/03/31 02:38:13;;;;;;;13.95;2.45;;;9.20;99.90;;;;;;5025246;28;20466;-42
2024/03/31 02:40:41;;;;;;;12.38;2.58;;;9.00;99.90;;;;;;5023244;28;20033;-40
2024/03/31 02:43:06;;;;;;;14.40;2.27;;;9.00;99.90;;;;;;5022253;28;20083;-41
2024/03/31 02:45:32;;;;;;;7.35;2.20;;;9.00;99.90;;;;;;5024244;28;20280;-41
2024/03/31 02:47:57;;;;;;;11.65;2.58;;;9.00;99.90;;;;;;5025599;28;20063;-43
2024/03/31 02:50:23;;;;;;;12.55;2.92;;;9.00;99.90;;;;;;5025711;28;20025;-40
2024/03/31 02:52:48;;;;;;;13.10;2.45;;;9.10;99.90;;;;;;5026433;28;20851;-41
2024/03/31 02:55:14;;;;;;;9.82;3.15;;;8.60;99.90;;;;;;5021845;28;20079;-36
2024/03/31 02:57:40;;;;;;;15.73;5.68;;;8.50;99.90;;;;;;5022607;28;20091;-41
2024/03/31 03:00:06;;;;;;;15.05;3.45;;;8.40;99.90;;;;;;5027286;28;20031;-41
2024/03/31 03:02:31;;;;;;;10.65;3.15;;;8.50;99.90;;;;;;5039857;28;20029;-42
2024/03/31 03:04:57;;;;;;;13.20;4.47;;;8.60;99.90;;;;;;5046749;28;20029;-43
2024/03/31 03:07:22;;;;;;;7.72;4.00;;;8.70;99.90;;;;;;5058254;28;20037;-42
2024/03/31 03:09:49;;;;;;;11.30;3.83;;;8.80;99.90;;;;;;5044863;28;20396;-39
2024/03/31 03:12:15;;;;;;;13.93;3.47;;;8.80;99.90;;;;;;5043982;28;20548;-43
2024/03/31 03:14:41;;;;;;;7.18;2.58;;;8.80;99.90;;;;;;5044734;28;20033;-41
2024/03/31 03:17:07;;;;;;;18.63;3.13;;;8.50;99.90;;;;;;5042455;28;20892;-40
2024/03/31 03:19:33;;;;;;;11.15;2.60;;;8.30;99.90;;;;;;5045560;28;20445;-41
2024/03/31 03:21:59;;;;;;;11.50;3.55;;;8.30;99.90;;;;;;5042317;28;20025;-41
2024/03/31 03:24:24;;;;;;;13.65;3.50;;;8.20;99.90;;;;;;5046111;28;20017;-41
2024/03/31 03:26:50;;;;;;;11.23;2.63;;;8.30;99.90;;;;;;5043895;28;20029;-37
2024/03/31 03:29:15;;;;;;;8.63;3.25;;;8.20;99.90;;;;;;5045484;28;20036;-41
2024/03/31 03:31:41;;;;;;;12.50;2.80;;;8.20;99.90;;;;;;5046345;28;20037;-39
2024/03/31 03:34:07;;;;;;;10.25;2.40;;;8.20;99.90;;;;;;5045402;28;20398;-41
2024/03/31 03:36:32;;;;;;;10.98;3.03;;;8.20;99.90;;;;;;5045590;28;20036;-39
2024/03/31 03:38:58;;;;;;;8.60;2.30;;;7.90;99.90;;;;;;5044220;28;21259;-35
2024/03/31 03:41:23;;;;;;;12.18;2.33;;;7.90;99.90;;;;;;5045234;28;20036;-33
2024/03/31 03:43:49;;;;;;;9.65;2.10;;;7.50;99.90;;;;;;5043866;28;20029;-34
2024/03/31 03:46:14;;;;;;;9.93;2.22;;;6.90;99.90;;;;;;5034359;28;20087;-33
2024/03/31 03:48:40;;;;;;;11.80;2.38;;;7.00;99.90;;;;;;5062652;28;20068;-34
2024/03/31 03:51:06;;;;;;;10.95;2.75;;;7.00;99.90;;;;;;5042577;28;20137;-34
2024/03/31 03:53:31;;;;;;;8.65;1.92;;;7.20;99.90;;;;;;5042414;28;20036;-33
2024/03/31 03:55:57;;;;;;;8.05;2.55;;;7.10;99.90;;;;;;5043947;28;21828;-36
2024/03/31 03:58:22;;;;;;;8.45;2.17;;;7.10;99.90;;;;;;5044303;28;20131;-36
2024/03/31 04:00:48;;;;;;;11.93;3.05;;;7.20;99.90;;;;;;5039282;28;20067;-36
2024/03/31 04:03:13;;;;;;;10.32;3.80;;;7.20;99.90;;;;;;5022184;28;20479;-33
2024/03/31 04:05:40;;;;;;;9.70;3.33;;;7.20;99.90;;;;;;5021955;28;20053;-33
2024/03/31 04:08:06;;;;;;;8.05;2.47;;;7.20;99.90;;;;;;5019910;28;20451;-33
2024/03/31 04:10:32;;;;;;;12.23;2.63;;;7.20;99.90;;;;;;5023800;28;20042;-33
2024/03/31 04:12:57;;;;;;;13.43;3.33;;;7.20;99.90;;;;;;5026154;28;20478;-35
2024/03/31 04:15:23;;;;;;;6.28;2.22;;;7.20;99.90;;;;;;5024973;28;20071;-34
2024/03/31 04:17:50;;;;;;;7.57;1.83;;;7.20;99.90;;;;;;5024528;28;20036;-35
2024/03/31 04:20:16;;;;;;;6.38;1.83;;;6.80;99.90;;;;;;5025551;28;20037;-32
2024/03/31 04:22:42;;;;;;;6.03;1.98;;;6.50;99.90;;;;;;5019212;28;20029;-36
2024/03/31 04:25:07;;;;;;;8.05;1.95;;;6.50;99.90;;;;;;5020063;28;20037;-34
2024/03/31 04:27:33;;;;;;;11.45;2.40;;;6.10;99.90;;;;;;5023063;28;20076;-33
2024/03/31 04:29:59;;;;;;;9.20;2.22;;;6.30;99.90;;;;;;5022575;28;20391;-38
2024/03/31 04:32:24;;;;;;;10.07;2.65;;;6.40;99.90;;;;;;5035769;28;20021;-34
2024/03/31 04:34:50;;;;;;;8.05;2.45;;;6.50;99.90;;;;;;5042598;28;20116;-33
2024/03/31 04:37:15;;;;;;;6.30;2.00;;;6.60;99.90;;;;;;5041774;28;20033;-35
2024/03/31 04:39:41;;;;;;;10.30;2.38;;;6.70;99.90;;;;;;5041461;28;20111;-36
2024/03/31 04:42:06;;;;;;;4.93;2.28;;;6.70;99.90;;;;;;5038300;28;20070;-33
2024/03/31 04:44:32;;;;;;;5.13;1.80;;;6.60;99.90;;;;;;5039168;28;20021;-34
2024/03/31 04:46:58;;;;;;;6.95;2.42;;;6.70;99.90;;;;;;5039634;28;20571;-33
2024/03/31 04:49:23;;;;;;;10.45;2.08;;;6.40;99.90;;;;;;5040021;28;20033;-35
2024/03/31 04:51:50;;;;;;;3.92;1.58;;;6.40;99.90;;;;;;5043359;28;20033;-32
2024/03/31 04:54:19;;;;;;;4.53;1.75;;;6.30;99.90;;;;;;5042653;28;20497;-33
2024/03/31 04:56:48;;;;;;;11.23;2.28;;;5.90;99.90;;;;;;5038619;28;20033;-34
2024/03/31 04:59:14;;;;;;;6.65;2.25;;;6.00;99.90;;;;;;5041580;28;20032;-34
2024/03/31 05:01:39;;;;;;;11.35;3.70;;;6.10;99.90;;;;;;5039796;28;20044;-32
2024/03/31 05:04:05;;;;;;;9.20;3.03;;;6.10;99.90;;;;;;5039771;28;20654;-34
2024/03/31 05:06:31;;;;;;;8.20;3.08;;;6.20;99.90;;;;;;5041287;28;20039;-34
2024/03/31 05:08:56;;;;;;;9.18;2.85;;;6.30;99.90;;;;;;5040462;28;20076;-36
2024/03/31 05:11:22;;;;;;;6.78;2.65;;;6.30;99.90;;;;;;5041877;28;20037;-43
2024/03/31 05:13:48;;;;;;;7.65;2.22;;;6.30;99.90;;;;;;5040918;28;20033;-43
2024/03/31 05:16:14;;;;;;;7.70;2.05;;;6.30;99.90;;;;;;5039879;28;20028;-43
2024/03/31 05:18:39;;;;;;;8.40;2.10;;;6.40;99.90;;;;;;5055556;28;20627;-43
2024/03/31 05:21:06;;;;;;;7.63;2.33;;;6.40;99.90;;;;;;5044800;28;20095;-36
2024/03/31 05:23:34;;;;;;;11.85;2.42;;;6.60;99.90;;;;;;5046397;28;20389;-38
2024/03/31 05:26:00;;;;;;;8.35;2.15;;;6.60;99.90;;;;;;5045099;28;20033;-34
2024/03/31 05:28:26;;;;;;;11.02;2.17;;;6.60;99.90;;;;;;5045812;28;20051;-41
2024/03/31 05:30:52;;;;;;;8.07;2.10;;;6.50;99.90;;;;;;5046458;28;20044;-39
2024/03/31 05:33:18;;;;;;;11.40;2.42;;;6.30;99.90;;;;;;5045659;28;20029;-42
2024/03/31 05:35:45;;;;;;;7.35;1.98;;;6.30;99.90;;;;;;5046701;28;20052;-43
2024/03/31 05:38:13;;;;;;;6.75;2.40;;;6.20;99.90;;;;;;5044353;28;20553;-42
2024/03/31 05:40:40;;;;;;;;;;;6.20;99.90;;;;;;5045461;28;20029;-40
2024/03/31 05:43:06;;;;;;;13.25;2.55;;;6.30;99.90;;;;;;5046063;28;19915;-36
2024/03/31 05:45:34;;;;;;;5.28;2.08;;;6.30;99.90;;;;;;5046199;28;20028;-40
2024/03/31 05:48:00;;;;;;;7.47;2.00;;;6.30;99.90;;;;;;5047010;28;20421;-40
2024/03/31 05:50:26;;;;;;;6.97;1.98;;;6.40;99.90;;;;;;5044341;28;20714;-42
2024/03/31 05:52:52;;;;;;;6.55;2.72;;;6.30;99.90;;;;;;5045582;28;20044;-43
2024/03/31 05:55:17;;;;;;;8.52;2.60;;;6.30;99.90;;;;;;5044859;28;20035;-42
2024/03/31 05:57:46;;;;;;;6.45;2.20;;;6.50;99.90;;;;;;5042727;28;20021;-40
2024/03/31 06:00:12;;;;;;;21.05;2.90;;;6.40;99.90;;;;;;5043842;28;20135;-37
2024/03/31 06:02:39;;;;;;;15.90;3.78;;;6.40;99.90;;;;;;5036980;28;20037;-41
2024/03/31 06:05:06;;;;;;;16.00;2.72;;;6.50;99.90;;;;;;5039301;28;20034;-42
2024/03/31 06:07:31;;;;;;;5.20;2.65;;;6.50;99.90;;;;;;5022251;28;20047;-37
2024/03/31 06:09:58;;;;;;;6.30;1.88;;;6.50;99.90;;;;;;5026258;28;20029;-39
2024/03/31 06:12:25;;;;;;;18.30;2.55;;;6.60;99.90;;;;;;5038220;28;20175;-39
2024/03/31 06:14:51;;;;;;;9.43;2.53;;;6.50;99.90;;;;;;5024918;28;20091;-41
2024/03/31 06:17:23;;;;;;;9.27;2.33;;;6.50;99.90;;;;;;5023418;28;20075;-41
2024/03/31 06:20:00;;;;;;;9.75;2.63;;;6.50;99.90;;;;;;5040301;28;20382;-41
2024/03/31 06:22:25;;;;;;;11.57;3.17;;;6.60;99.90;;;;;;5021939;28;20060;-40
2024/03/31 06:24:55;;;;;;;6.40;2.08;;;6.70;99.90;;;;;;5023389;28;20126;-41
2024/03/31 06:27:27;;;;;;;4.43;1.92;;;6.70;99.90;;;;;;5023414;28;20026;-35
2024/03/31 06:30:03;;;;;;;4.05;1.90;;;6.80;99.90;;;;;;5024189;28;20039;-39
2024/03/31 06:32:31;;;;;;;13.18;3.00;;;6.80;99.90;;;;;;5036471;28;20133;-38
2024/03/31 06:34:57;;;;;;;;;;;6.80;99.90;;;;;;5023804;28;20020;-41
2024/03/31 06:37:23;;;;;;;9.27;2.33;;;6.80;99.90;;;;;;5056162;28;19920;-41
2024/03/31 06:39:49;;;;;;;14.88;3.22;;;6.60;99.90;;;;;;5058413;28;20542;-37
2024/03/31 06:42:26;;;;;;;9.23;2.92;;;6.40;99.90;;;;;;5042101;28;20167;-41
2024/03/31 06:44:53;;;;;;;6.72;2.72;;;6.50;99.90;;;;;;5044395;28;20033;-42
2024/03/31 06:47:19;;;;;;;10.05;3.40;;;6.60;99.90;;;;;;5039941;28;20158;-40
2024/03/31 06:49:45;;;;;;;9.82;3.05;;;6.70;99.90;;;;;;5043880;28;20028;-38
2024/03/31 06:52:17;;;;;;;8.90;3.35;;;6.80;99.90;;;;;;5054843;28;20033;-40
2024/03/31 06:54:49;;;;;;;8.65;2.40;;;6.80;99.90;;;;;;5042255;28;20559;-35
2024/03/31 06:57:21;;;;;;;7.15;2.40;;;6.90;99.90;;;;;;5035292;28;20399;-40
2024/03/31 06:59:47;;;;;;;11.15;2.72;;;6.80;99.90;;;;;;5040064;28;20052;-39
2024/03/31 07:02:14;;;;;;;14.23;3.03;;;6.80;99.90;;;;;;5024919;28;20033;-37
2024/03/31 07:04:40;;;;;;;11.93;3.03;;;6.80;99.90;;;;;;5022587;28;20083;-38
2024/03/31 07:07:14;;;;;;;7.03;3.30;;;7.00;99.90;;;;;;5020453;28;20029;-39
2024/03/31 07:09:40;;;;;;;7.75;2.55;;;7.00;99.90;;;;;;5022288;28;20036;-32
2024/03/31 07:12:06;;;;;;;10.65;3.75;;;7.00;99.90;;;;;;5022790;28;20491;-34
2024/03/31 07:14:32;;;;;;;9.80;3.30;;;7.10;99.90;;;;;;5025716;28;20051;-36
2024/03/31 07:16:58;;;;;;;7.03;3.38;;;7.20;99.90;;;;;;5021936;28;20100;-37
2024/03/31 07:19:24;;;;;;;10.40;3.13;;;7.30;99.90;;;;;;5026469;28;20117;-35
2024/03/31 07:21:50;;;;;;;7.40;2.75;;;7.40;99.90;;;;;;5029116;28;20112;-32
2024/03/31 07:24:15;;;;;;;7.07;2.80;;;7.40;99.90;;;;;;5020187;28;20030;-32
2024/03/31 07:26:41;;;;;;;8.10;2.95;;;7.50;99.90;;;;;;5020480;28;20025;-35
2024/03/31 07:29:07;;;;;;;6.70;3.00;;;7.50;99.90;;;;;;5016665;28;20084;-32
2024/03/31 07:31:32;;;;;;;8.93;2.85;;;7.60;99.90;;;;;;5026185;28;20044;-33
2024/03/31 07:33:59;;;;;;;12.18;2.83;;;7.70;99.90;;;;;;5040334;28;20037;-33
2024/03/31 07:36:24;;;;;;;7.93;2.47;;;7.70;99.90;;;;;;5039125;28;20521;-36
2024/03/31 07:38:50;;;;;;;6.35;2.58;;;7.70;99.90;;;;;;5042406;28;20029;-33
2024/03/31 07:41:16;;;;;;;14.60;3.10;;;7.80;99.90;;;;;;5037801;28;20025;-33
2024/03/31 07:43:41;;;;;;;10.18;3.00;;;7.60;99.90;;;;;;5041250;28;20021;-33
2024/03/31 07:46:07;;;;;;;11.75;3.47;;;7.50;99.90;;;;;;5039919;28;20025;-33
2024/03/31 07:48:32;;;;;;;9.80;3.33;;;7.50;99.90;;;;;;5041438;28;20410;-33
2024/03/31 07:50:58;;;;;;;13.95;3.53;;;7.50;99.90;;;;;;5040843;28;20029;-40
2024/03/31 07:53:23;;;;;;;7.35;3.10;;;7.50;99.90;;;;;;5041379;28;20013;-33
2024/03/31 07:56:00;;;;;;;10.45;2.70;;;7.60;99.90;;;;;;5038640;28;20044;-32
2024/03/31 07:58:26;;;;;;;11.77;2.90;;;7.60;99.90;;;;;;5041222;28;20485;-35
2024/03/31 08:00:54;;;;;;;9.30;2.85;;;7.70;99.90;;;;;;5037957;28;20049;-33
2024/03/31 08:03:20;;;;;;;8.70;2.63;;;7.90;99.90;;;;;;5022518;28;20030;-34
2024/03/31 08:05:45;;;;;;;9.35;2.83;;;8.00;99.90;;;;;;5035680;28;20040;-35
2024/03/31 08:08:12;;;;;;;15.18;3.53;;;8.10;99.90;;;;;;5020316;28;20029;-37
2024/03/31 08:10:38;;;;;;;8.73;3.63;;;8.10;99.90;;;;;;5022662;28;20037;-33
2024/03/31 08:13:04;;;;;;;13.93;3.15;;;8.20;99.90;;;;;;5020713;28;20029;-37
2024/03/31 08:15:30;;;;;;;15.15;3.20;;;8.30;99.90;;;;;;5022885;28;20040;-35
2024/03/31 08:17:55;;;;;;;12.07;3.65;;;8.40;99.90;;;;;;5022384;28;20033;-33
2024/03/31 08:20:21;;;;;;;8.32;2.80;;;8.40;99.90;;;;;;5020787;28;20104;-35
2024/03/31 08:22:47;;;;;;;12.55;3.03;;;8.40;99.90;;;;;;5022375;28;20040;-33
2024/03/31 08:25:12;;;;;;;12.48;3.22;;;8.50;99.90;;;;;;5019754;28;20087;-35
2024/03/31 08:27:38;;;;;;;12.30;3.22;;;8.60;99.90;;;;;;5023536;28;20024;-36
2024/03/31 08:30:04;;;;;;;19.10;3.60;;;8.80;99.90;;;;;;5020226;28;20021;-35
2024/03/31 08:32:30;;;;;;;7.80;3.13;;;8.90;99.90;;;;;;5019501;28;20561;-32
2024/03/31 08:34:55;;;;;;;16.13;3.75;;;8.90;99.90;;;;;;5038317;28;20021;-35
2024/03/31 08:37:21;;;;;;;15.48;4.03;;;9.00;99.90;;;;;;5017616;28;20801;-37
2024/03/31 08:39:46;;;;;;;15.45;3.50;;;9.00;99.90;;;;;;5022650;28;20037;-35
2024/03/31 08:42:24;;;;;;;10.65;3.88;;;9.10;99.90;;;;;;5020493;28;20026;-35
2024/03/31 08:44:51;;;;;;;16.10;4.30;;;9.10;99.90;;;;;;5019530;28;20039;-37
2024/03/31 08:47:38;;;;;;;16.00;3.78;;;9.30;99.90;;;;;;5019796;28;20085;-35
2024/03/31 08:50:04;;;;;;;9.60;3.40;;;9.50;99.90;;;;;;5019292;28;20029;-33
2024/03/31 08:52:30;;;;;;;12.82;3.50;;;9.60;99.90;;;;;;5020021;28;20029;-32
2024/03/31 08:54:57;;;;;;;11.40;3.55;;;9.80;99.90;;;;;;5021656;28;20033;-37
2024/03/31 08:57:22;;;;;;;16.88;3.40;;;9.90;99.90;;;;;;5017811;28;20034;-33
2024/03/31 08:59:51;;;;;;;11.88;3.60;;;10.10;99.90;;;;;;5021082;28;20473;-33
2024/03/31 09:02:18;;;;;;;;;;;10.20;99.90;;;;;;5021346;28;20383;-38
2024/03/31 09:04:44;;;;;;;13.57;2.60;;;10.30;99.90;;;;;;5019234;28;19909;-41
2024/03/31 09:07:09;;;;;;;14.20;2.95;;;10.50;99.90;;;;;;5019727;28;22899;-40
2024/03/31 09:09:40;;;;;;;10.90;3.17;;;10.70;99.90;;;;;;5019908;28;20105;-41
2024/03/31 09:12:07;;;;;;;14.45;3.78;;;10.80;99.90;;;;;;5018843;28;20040;-43
2024/03/31 09:14:33;;;;;;;13.32;2.88;;;11.00;99.90;;;;;;5020096;28;20040;-40
2024/03/31 09:16:59;;;;;;;12.93;2.92;;;11.30;99.90;;;;;;5017347;28;20486;-37
2024/03/31 09:19:24;;;;;;;18.00;3.72;;;11.40;99.90;;;;;;5018010;28;20044;-39
2024/03/31 09:21:50;;;;;;;11.57;2.50;;;11.50;99.90;;;;;;5019677;28;20034;-40
2024/03/31 09:24:17;;;;;;;16.10;3.15;;;11.50;99.90;;;;;;5019417;28;20418;-41
2024/03/31 09:26:44;;;;;;;16.38;3.85;;;11.70;99.90;;;;;;5020690;28;20119;-41
2024/03/31 09:29:12;;;;;;;10.60;2.95;;;11.80;99.90;;;;;;5020319;28;20486;-41
2024/03/31 09:31:37;;;;;;;12.43;2.90;;;11.80;99.90;;;;;;5034806;28;20503;-39
2024/03/31 09:34:04;;;;;;;19.92;3.08;;;11.80;99.90;;;;;;5017625;28;20083;-38
2024/03/31 09:36:30;;;;;;;13.30;3.55;;;11.90;99.90;;;;;;5018757;28;20029;-36
2024/03/31 09:38:55;;;;;;;12.70;2.88;;;12.00;99.90;;;;;;5018413;28;20045;-34
2024/03/31 09:41:21;;;;;;;15.68;3.38;;;12.00;99.90;;;;;;5018018;28;20033;-34
2024/03/31 09:43:47;;;;;;;12.13;2.85;;;11.90;99.90;;;;;;5019782;28;20053;-36
2024/03/31 09:46:15;;;;;;;12.18;3.25;;;11.90;99.90;;;;;;5019872;28;20029;-35
2024/03/31 09:48:44;;;;;;;14.80;2.83;;;12.00;99.90;;;;;;5035677;28;20040;-35
2024/03/31 09:51:19;;;;;;;14.35;2.95;;;12.10;99.90;;;;;;5019196;28;20513;-31
2024/03/31 09:54:01;;;;;;;16.45;3.33;;;12.20;99.90;;;;;;5020150;28;20037;-34
2024/03/31 09:57:08;;;;;;;18.20;3.83;;;12.50;99.90;;;;;;5019947;28;20087;-34
2024/03/31 09:59:43;;;;;;;19.13;4.47;;;12.50;99.90;;;;;;5018363;28;20097;-35
2024/03/31 10:02:13;;;;;;;12.98;2.70;;;12.60;99.90;;;;;;5032029;28;20087;-32
2024/03/31 10:05:10;;;;;;;20.55;3.80;;;12.50;99.90;;;;;;5039396;28;20029;-34
2024/03/31 10:07:36;;;;;;;22.73;2.92;;;12.40;99.90;;;;;;5040128;28;20036;-33
2024/03/31 10:10:03;;;;;;;16.55;3.10;;;12.50;99.90;;;;;;5043770;28;20033;-38
2024/03/31 10:12:31;;;;;;;20.55;3.75;;;12.70;99.90;;;;;;5042254;28;20036;-37
2024/03/31 10:14:58;;;;;;;;;;;13.00;99.90;;;;;;5044444;28;20376;-32
2024/03/31 10:17:24;;;;;;;13.43;2.90;;;13.10;99.90;;;;;;5040324;28;20420;-35
2024/03/31 10:19:52;;;;;;;12.55;3.10;;;12.90;99.90;;;;;;5041403;28;20033;-33
2024/03/31 10:22:19;;;;;;;13.43;3.05;;;12.80;99.90;;;;;;5043794;28;20029;-31
2024/03/31 10:24:47;;;;;;;14.32;2.83;;;13.00;99.90;;;;;;5038592;28;20040;-36
2024/03/31 10:27:14;;;;;;;;;;;13.10;99.90;;;;;;5043761;28;20033;-34
2024/03/31 10:29:43;;;;;;;16.25;3.40;;;13.40;99.90;;;;;;5039926;28;20390;-36
2024/03/31 10:32:09;;;;;;;8.40;2.33;;;13.40;99.90;;;;;;5041795;28;20033;-32
2024/03/31 10:34:36;;;;;;;13.85;2.60;;;13.50;98.30;;;;;;5040444;28;20758;-33
2024/03/31 10:37:03;;;;;;;15.40;3.20;;;13.40;99.50;;;;;;5040920;28;20048;-35
2024/03/31 10:39:29;;;;;;;20.63;3.60;;;13.50;99.90;;;;;;5043137;28;20395;-33
2024/03/31 10:41:55;;;;;;;12.38;3.00;;;13.90;99.90;;;;;;5043569;28;20029;-33
2024/03/31 10:44:21;;;;;;;18.02;3.50;;;14.20;99.90;;;;;;5039566;28;20068;-32
2024/03/31 10:46:48;;;;;;;13.65;3.10;;;14.40;99.90;;;;;;5042005;28;20045;-32
2024/03/31 10:49:13;;;;;;;20.45;2.92;;;14.50;97.70;;;;;;5040291;28;20487;-42
2024/03/31 10:51:42;;;;;;;19.15;3.95;;;14.60;99.90;;;;;;5037929;28;20033;-42
2024/03/31 10:54:27;;;;;;;13.13;4.13;;;14.70;95.10;;;;;;5040097;28;20116;-40
2024/03/31 10:57:02;;;;;;;14.48;2.70;;;15.00;97.00;;;;;;5042265;28;20098;-41
2024/03/31 10:59:31;;;;;;;17.05;3.25;;;15.20;97.50;;;;;;5039338;28;20560;-40
2024/03/31 11:01:58;;;;;;;22.65;4.38;;;15.20;92.90;;;;;;5044282;28;20040;-35
2024/03/31 11:04:25;;;;;;;14.05;3.08;;;15.30;92.80;;;;;;5044855;28;20086;-38
2024/03/31 11:06:53;;;;;;;22.10;3.95;;;15.40;99.90;;;;;;5044747;28;20033;-37
2024/03/31 11:09:20;;;;;;;18.00;4.18;;;15.50;92.80;;;;;;5043102;28;20029;-38
2024/03/31 11:11:46;;;;;;;14.27;2.90;;;15.50;87.90;;;;;;5047270;28;20032;-40
2024/03/31 11:14:12;;;;;;;18.27;3.47;;;15.50;93.40;;;;;;5043288;28;20112;-41
2024/03/31 11:16:38;;;;;;;22.40;3.78;;;15.30;87.30;;;;;;5045107;28;20124;-40
2024/03/31 11:19:05;;;;;;;12.43;3.20;;;15.30;90.10;;;;;;5042914;28;20135;-39
2024/03/31 11:21:33;;;;;;;14.88;3.33;;;15.50;93.30;;;;;;5044824;28;20047;-41
2024/03/31 11:24:03;;;;;;;17.63;3.85;;;15.80;88.80;;;;;;5049172;28;20052;-34
2024/03/31 11:26:29;;;;;;;24.38;4.00;;;15.90;82.00;;;;;;5044515;28;20028;-40
2024/03/31 11:28:56;;;;;;;22.15;3.10;;;16.10;81.10;;;;;;5044829;28;20036;-41
2024/03/31 11:31:22;;;;;;;16.52;3.78;;;16.00;78.30;;;;;;5044439;28;20041;-40
2024/03/31 11:33:48;;;;;;;19.17;2.97;;;15.80;84.70;;;;;;5042839;28;20099;-41
2024/03/31 11:36:16;;;;;;;14.98;4.03;;;15.60;81.80;;;;;;5043204;28;20031;-35
2024/03/31 11:38:42;;;;;;;16.85;4.13;;;15.40;91.30;;;;;;5044118;28;20363;-35
2024/03/31 11:41:08;;;;;;;23.58;4.03;;;15.20;93.10;;;;;;5042064;28;20036;-34
2024/03/31 11:43:34;;;;;;;21.98;3.45;;;15.50;96.90;;;;;;5043470;28;20028;-41
2024/03/31 11:46:00;;;;;;;19.17;3.30;;;15.80;90.00;;;;;;5043326;28;20025;-37
2024/03/31 11:48:29;;;;;;;16.25;3.40;;;15.80;95.10;;;;;;5041656;28;20538;-40
2024/03/31 11:50:54;;;;;;;16.30;3.33;;;15.80;84.60;;;;;;5041562;28;20044;-40
2024/03/31 11:53:20;;;;;;;14.85;4.00;;;15.60;95.10;;;;;;5039933;28;20032;-39
2024/03/31 11:55:46;;;;;;;22.30;4.10;;;15.70;91.90;;;;;;5044222;28;20057;-38
2024/03/31 11:58:11;;;;;;;14.23;3.30;;;15.40;85.90;;;;;;5043299;28;20167;-39
2024/03/31 12:00:37;;;;;;;18.25;3.20;;;15.30;92.90;;;;;;5042259;28;20107;-38
2024/03/31 12:03:06;;;;;;;21.45;3.90;;;15.30;94.00;;;;;;5039370;28;20040;-36
2024/03/31 12:05:34;;;;;;;18.73;3.85;;;15.20;91.00;;;;;;5040655;28;20021;-36
2024/03/31 12:08:00;;;;;;;16.05;3.80;;;15.20;95.20;;;;;;5041131;28;20029;-36
2024/03/31 12:10:26;;;;;;;16.50;4.13;;;15.20;93.80;;;;;;5041389;28;20068;-38
2024/03/31 12:12:53;;;;;;;12.63;3.58;;;15.30;97.20;;;;;;5041674;28;20367;-41
2024/03/31 12:15:19;;;;;;;16.55;3.15;;;15.30;98.90;;;;;;5040212;28;20029;-42
2024/03/31 12:17:46;;;;;;;15.02;3.17;;;15.50;90.90;;;;;;5040000;28;20044;-36
2024/03/31 12:20:12;;;;;;;16.85;3.63;;;15.60;96.30;;;;;;5039712;28;20021;-39
2024/03/31 12:22:41;;;;;;;16.40;3.38;;;15.80;95.60;;;;;;5039617;28;20095;-38
2024/03/31 12:25:10;;;;;;;13.20;2.90;;;15.90;92.70;;;;;;5040271;28;20071;-39
2024/03/31 12:27:36;;;;;;;17.13;3.20;;;15.90;92.60;;;;;;5042312;28;20052;-37
2024/03/31 12:30:05;;;;;;;17.38;2.85;;;16.00;96.10;;;;;;5039710;28;20061;-40
2024/03/31 12:32:31;;;;;;;20.30;3.50;;;16.10;94.20;;;;;;5023638;28;20033;-40
2024/03/31 12:34:57;;;;;;;22.20;3.78;;;16.20;97.90;;;;;;5023056;28;20033;-40
2024/03/31 12:37:24;;;;;;;17.02;3.03;;;16.10;93.30;;;;;;5018157;28;20033;-40
2024/03/31 12:39:52;;;;;;;17.88;2.92;;;16.00;92.90;;;;;;5020727;28;20051;-41
2024/03/31 12:42:18;;;;;;;14.93;3.10;;;16.10;96.30;;;;;;5021735;28;20028;-37
2024/03/31 12:44:44;;;;;;;17.02;3.78;;;16.00;92.50;;;;;;5023295;28;20025;-38